MMMV 090044Z 00000KT 10SM SCT200 21/08 A2991 RMK 8/002= 090044

MMMV 082343Z 00000KT 10SM SCT200 24/10 A2990 RMK 8/002= 082343

MMMV 082147Z 00000KT 10SM SCT200 25/07 A2989 RMK 8/002= 082147

MMMV 082049Z 00000KT 10SM SCT200 26/07 A2990 RMK 8/002= 082049

MMMV 081941Z 00000KT 10SM SCT200 25/07 A2992 RMK 8/002= 081941

MMMV 081843Z 00000KT 10SM SCT200 23/06 A2996 RMK 8/002= 081843

MMMV 081741Z 00000KT 10SM SKC 22/08 A3000= 081740

MMMV 081652Z 00000KT 10SM SKC 21/06 A3002= 081652

MMMV 081545Z 00000KT 10SM SKC 19/06 A3003= 081545

MMMV 081446Z 00000KT 10SM FEW200 14/06 A3003 RMK 8/002= 081446

MMMV 081346Z 00000KT 10SM SCT200 13/06 A3001 RMK 8/002 RTS= 081346

MMMV 061341Z 18004KT 10SM BKN200 17/08 A3002 RMK 8/002 RTS= 061341